createdAt,value
2022-12-19T00:01:54.324Z,21.67
2022-12-19T00:04:55.654Z,20.48
2022-12-19T00:07:56.953Z,20.00
2022-12-19T00:10:59.862Z,21.13
2022-12-19T00:14:01.133Z,19.27
2022-12-19T00:17:02.433Z,20.50
2022-12-19T00:20:03.762Z,19.27
2022-12-19T00:23:05.107Z,18.98
2022-12-19T00:26:06.396Z,18.33
2022-12-19T00:29:13.897Z,19.07
2022-12-19T00:32:15.631Z,18.58
2022-12-19T00:35:17.959Z,18.27
2022-12-19T00:38:19.268Z,19.27
2022-12-19T00:41:20.573Z,16.65
2022-12-19T00:44:21.873Z,18.07
2022-12-19T00:47:23.157Z,17.85
2022-12-19T00:50:24.455Z,16.80
2022-12-19T00:53:25.757Z,17.38
2022-12-19T00:56:27.036Z,16.05
2022-12-19T00:59:28.342Z,16.40
2022-12-19T01:02:29.858Z,16.60
2022-12-19T01:05:31.263Z,15.27
2022-12-19T01:08:32.596Z,16.25
2022-12-19T01:11:33.904Z,15.52
2022-12-19T01:14:35.210Z,16.13
2022-12-19T01:17:39.144Z,15.73
2022-12-19T01:20:46.114Z,14.73
2022-12-19T01:23:47.404Z,14.50
2022-12-19T01:26:48.695Z,14.80
2022-12-19T01:29:52.843Z,14.87
2022-12-19T01:32:54.268Z,15.23
2022-12-19T01:35:55.547Z,13.88
2022-12-19T01:38:56.827Z,14.18
2022-12-19T01:41:58.123Z,14.63
2022-12-19T01:44:59.415Z,13.97
2022-12-19T01:48:01.089Z,14.85
2022-12-19T01:51:02.775Z,14.80
2022-12-19T01:54:04.127Z,14.23
2022-12-19T01:57:05.372Z,13.18
2022-12-19T02:00:06.670Z,14.27
2022-12-19T02:03:08.001Z,13.85
2022-12-19T02:06:11.914Z,13.27
2022-12-19T02:09:13.182Z,13.52
2022-12-19T02:12:14.514Z,14.10
2022-12-19T02:15:15.819Z,13.13
2022-12-19T02:18:17.127Z,12.90
2022-12-19T02:21:18.410Z,13.80
2022-12-19T02:24:19.785Z,12.60
2022-12-19T02:27:21.057Z,13.18
2022-12-19T02:30:22.349Z,12.30
2022-12-19T02:33:23.672Z,12.43
2022-12-19T02:36:24.971Z,11.50
2022-12-19T02:39:26.265Z,12.20
2022-12-19T02:42:29.004Z,12.23
2022-12-19T02:45:33.241Z,11.63
2022-12-19T02:48:34.553Z,11.82
2022-12-19T02:51:35.848Z,12.05
2022-12-19T02:54:37.166Z,12.13
2022-12-19T02:57:42.006Z,11.88
2022-12-19T03:00:43.278Z,11.30
2022-12-19T03:03:44.597Z,11.75
2022-12-19T03:06:45.883Z,11.88
2022-12-19T03:09:48.508Z,11.98
2022-12-19T03:12:49.823Z,12.43
2022-12-19T03:15:51.122Z,11.67
2022-12-19T03:18:52.431Z,10.73
2022-12-19T03:21:53.725Z,10.90
2022-12-19T03:24:55.069Z,11.40
2022-12-19T03:27:56.368Z,11.23
2022-12-19T03:30:57.709Z,11.70
2022-12-19T03:33:59.016Z,10.88
2022-12-19T03:37:00.326Z,10.32
2022-12-19T03:40:01.617Z,11.68
2022-12-19T03:43:02.968Z,11.20
2022-12-19T03:46:04.468Z,10.10
2022-12-19T03:49:05.788Z,10.88
2022-12-19T03:52:09.759Z,10.68
2022-12-19T03:55:11.067Z,10.55
2022-12-19T03:58:12.346Z,10.80
2022-12-19T04:01:14.320Z,10.47
2022-12-19T04:04:15.670Z,10.88
2022-12-19T04:07:16.955Z,11.85
2022-12-19T04:10:18.255Z,11.88
2022-12-19T04:13:19.529Z,10.55
2022-12-19T04:16:20.881Z,11.10
2022-12-19T04:19:22.197Z,10.85
2022-12-19T04:22:23.738Z,11.05
2022-12-19T04:25:29.218Z,10.13
2022-12-19T04:28:30.902Z,11.13
2022-12-19T04:31:32.290Z,11.23
2022-12-19T04:34:33.644Z,11.18
2022-12-19T04:37:34.933Z,11.25
2022-12-19T04:40:40.978Z,10.10
2022-12-19T04:43:42.943Z,10.45
2022-12-19T04:46:44.330Z,9.70
2022-12-19T04:49:45.667Z,10.57
2022-12-19T04:52:46.968Z,10.38
2022-12-19T04:55:48.272Z,10.25
2022-12-19T04:58:49.595Z,10.63
2022-12-19T05:01:50.949Z,9.50
2022-12-19T05:04:52.265Z,10.95
2022-12-19T05:07:53.568Z,10.63
2022-12-19T05:10:54.862Z,11.15
2022-12-19T05:13:56.155Z,10.65
2022-12-19T05:17:01.658Z,11.03
2022-12-19T05:20:03.123Z,11.32
2022-12-19T05:23:08.060Z,10.85
2022-12-19T05:26:12.650Z,10.95
2022-12-19T05:29:13.936Z,10.48
2022-12-19T05:32:15.248Z,10.07
2022-12-19T05:35:16.539Z,10.65
2022-12-19T05:38:17.858Z,11.23
2022-12-19T05:41:19.174Z,10.05
2022-12-19T05:44:20.493Z,10.00
2022-12-19T05:47:21.818Z,10.07
2022-12-19T05:50:23.119Z,10.70
2022-12-19T05:53:26.080Z,11.02
2022-12-19T05:56:27.564Z,11.02
2022-12-19T05:59:28.884Z,10.75
2022-12-19T06:02:30.338Z,9.80
2022-12-19T06:05:31.743Z,9.85
2022-12-19T06:08:33.043Z,11.00
2022-12-19T06:11:34.375Z,9.45
2022-12-19T06:14:35.691Z,11.18
2022-12-19T06:17:36.970Z,9.43
2022-12-19T06:20:38.288Z,10.32
2022-12-19T06:23:39.990Z,10.27
2022-12-19T06:26:41.276Z,10.48
2022-12-19T06:29:42.586Z,10.30
2022-12-19T06:32:43.889Z,9.47
2022-12-19T06:35:45.183Z,9.65
2022-12-19T06:38:46.489Z,9.15
2022-12-19T06:41:47.782Z,9.20
2022-12-19T06:44:49.073Z,9.68
2022-12-19T06:47:50.365Z,10.47
2022-12-19T06:50:51.697Z,9.45
2022-12-19T06:53:53.015Z,8.68
2022-12-19T06:56:54.350Z,9.25
2022-12-19T06:59:55.679Z,9.68
2022-12-19T07:02:56.992Z,9.73
2022-12-19T07:05:58.379Z,10.30
2022-12-19T07:08:59.661Z,10.43
2022-12-19T07:12:00.992Z,9.18
2022-12-19T07:15:02.294Z,10.32
2022-12-19T07:18:03.612Z,10.60
2022-12-19T07:21:04.908Z,10.32
2022-12-19T07:24:06.223Z,9.93
2022-12-19T07:27:07.515Z,10.95
2022-12-19T07:30:08.833Z,10.77
2022-12-19T07:33:11.863Z,10.57
2022-12-19T07:36:14.158Z,10.40
2022-12-19T07:39:15.453Z,10.27
2022-12-19T07:42:16.766Z,11.15
2022-12-19T07:45:18.057Z,10.57
2022-12-19T07:48:19.660Z,10.13
2022-12-19T07:51:21.113Z,11.95
2022-12-19T07:54:22.452Z,14.73
2022-12-19T07:57:23.835Z,14.52
2022-12-19T08:00:25.178Z,12.73
2022-12-19T08:03:26.542Z,14.23
2022-12-19T08:06:28.030Z,13.20
2022-12-19T08:09:29.543Z,11.60
2022-12-19T08:12:30.856Z,12.07
2022-12-19T08:15:32.176Z,12.85
2022-12-19T08:18:33.452Z,11.80
2022-12-19T08:21:34.762Z,12.02
2022-12-19T08:24:36.082Z,12.00
2022-12-19T08:27:37.483Z,12.18
2022-12-19T08:30:39.145Z,12.63
2022-12-19T08:33:40.469Z,11.67
2022-12-19T08:36:41.797Z,12.07
2022-12-19T08:39:43.127Z,12.50
2022-12-19T08:42:44.452Z,12.20
2022-12-19T08:45:46.377Z,10.93
2022-12-19T08:48:47.693Z,13.00
2022-12-19T08:51:49.020Z,11.93
2022-12-19T08:54:50.322Z,12.02
2022-12-19T08:57:51.639Z,11.75
2022-12-19T09:00:57.513Z,11.70
2022-12-19T09:05:09.096Z,11.87
2022-12-19T09:07:21.708Z,12.85
2022-12-19T09:10:23.025Z,12.35
2022-12-19T09:13:24.507Z,12.52
2022-12-19T09:16:26.061Z,11.38
2022-12-19T09:19:27.410Z,11.37
2022-12-19T09:22:29.612Z,11.02
2022-12-19T09:25:31.131Z,11.60
2022-12-19T09:28:32.430Z,11.02
2022-12-19T09:31:33.764Z,11.18
2022-12-19T09:34:37.625Z,11.17
2022-12-19T09:37:40.034Z,12.27
2022-12-19T09:40:41.372Z,12.30
2022-12-19T09:43:42.743Z,12.50
2022-12-19T09:46:44.112Z,12.32
2022-12-19T09:49:46.761Z,12.23
2022-12-19T09:52:48.075Z,12.50
2022-12-19T09:55:49.393Z,11.88
2022-12-19T09:58:50.718Z,13.10
2022-12-19T10:01:52.156Z,11.23
2022-12-19T10:04:59.307Z,12.07
2022-12-19T10:08:14.972Z,11.98
2022-12-19T10:12:40.846Z,12.25
2022-12-19T10:14:38.549Z,12.07
2022-12-19T10:17:39.853Z,12.63
2022-12-19T10:20:41.262Z,12.37
2022-12-19T10:23:42.556Z,13.63
2022-12-19T10:26:43.873Z,12.48
2022-12-19T10:29:45.223Z,13.10
2022-12-19T10:32:46.542Z,12.80
2022-12-19T10:35:47.874Z,13.13
2022-12-19T10:38:51.281Z,12.65
2022-12-19T10:41:53.137Z,13.93
2022-12-19T10:44:55.826Z,12.73
2022-12-19T10:47:57.174Z,11.70
2022-12-19T10:50:58.503Z,11.97
2022-12-19T10:54:03.795Z,12.45
2022-12-19T10:57:05.118Z,12.43
2022-12-19T11:00:06.413Z,12.55
2022-12-19T11:03:07.787Z,12.48
2022-12-19T11:06:09.988Z,11.70
2022-12-19T11:09:11.300Z,12.35
2022-12-19T11:16:30.255Z,12.52
2022-12-19T11:19:57.763Z,13.38
2022-12-19T11:26:02.638Z,13.93
2022-12-19T11:29:47.028Z,13.17
2022-12-19T11:30:36.677Z,11.88
2022-12-19T11:30:46.606Z,12.40
2022-12-19T11:32:41.487Z,10.68
2022-12-19T11:35:41.855Z,13.15
2022-12-19T11:38:43.148Z,12.13
2022-12-19T11:41:44.466Z,11.45
2022-12-19T11:44:45.849Z,11.70
2022-12-19T11:47:47.187Z,12.02
2022-12-19T11:50:48.488Z,11.90
2022-12-19T11:53:49.824Z,11.83
2022-12-19T11:56:51.122Z,11.00
2022-12-19T11:59:52.515Z,10.38
2022-12-19T12:02:53.867Z,11.63
2022-12-19T12:05:55.262Z,11.82
2022-12-19T12:11:40.918Z,12.43
2022-12-19T12:15:07.416Z,12.10
2022-12-19T12:30:07.661Z,12.52
2022-12-19T12:31:01.919Z,10.55
2022-12-19T12:31:20.665Z,12.50
2022-12-19T12:31:41.323Z,11.67
2022-12-19T12:31:58.267Z,11.85
2022-12-19T12:35:28.858Z,11.73
2022-12-19T12:39:08.163Z,10.48
2022-12-19T12:42:09.574Z,10.93
2022-12-19T12:45:10.880Z,11.27
2022-12-19T12:48:12.200Z,13.10
2022-12-19T12:51:13.503Z,11.73
2022-12-19T12:54:14.834Z,10.20
2022-12-19T12:57:16.149Z,11.87
2022-12-19T13:00:17.461Z,11.38
2022-12-19T13:03:18.859Z,10.02
2022-12-19T13:06:20.222Z,10.90
2022-12-19T13:09:21.554Z,10.48
2022-12-19T13:12:22.857Z,11.40
2022-12-19T13:15:24.158Z,10.77
2022-12-19T13:18:25.490Z,10.52
2022-12-19T13:21:26.777Z,10.88
2022-12-19T13:24:28.151Z,10.60
2022-12-19T13:27:29.496Z,9.83
2022-12-19T13:30:30.853Z,11.68
2022-12-19T13:33:32.333Z,10.73
2022-12-19T13:39:47.686Z,11.52
2022-12-19T13:40:11.956Z,11.07
2022-12-19T13:43:14.304Z,10.57
2022-12-19T13:46:15.768Z,12.45
2022-12-19T13:49:17.118Z,11.23
2022-12-19T13:52:18.453Z,11.95
2022-12-19T13:55:19.757Z,11.07
2022-12-19T13:58:21.069Z,10.83
2022-12-19T14:01:30.918Z,10.13
2022-12-19T14:04:32.300Z,10.65
2022-12-19T14:07:36.150Z,10.55
2022-12-19T14:11:42.496Z,11.40
2022-12-19T14:14:06.450Z,11.07
2022-12-19T14:17:13.873Z,10.95
2022-12-19T14:22:02.055Z,10.27
2022-12-19T14:23:44.062Z,11.32
2022-12-19T14:28:24.404Z,10.77
2022-12-19T14:30:28.625Z,10.33
2022-12-19T14:33:46.477Z,11.32
2022-12-19T14:36:49.815Z,10.13
2022-12-19T14:39:51.144Z,12.27
2022-12-19T14:43:59.410Z,10.50
2022-12-19T14:53:34.399Z,11.03
2022-12-19T14:54:05.762Z,10.25
2022-12-19T14:54:20.820Z,11.00
2022-12-19T14:56:40.633Z,11.65
2022-12-19T14:59:38.863Z,11.10
2022-12-19T15:02:40.345Z,11.70
2022-12-19T15:05:41.718Z,10.23
2022-12-19T15:09:50.576Z,10.65
2022-12-19T15:12:56.589Z,12.68
2022-12-19T15:15:26.474Z,10.85
2022-12-19T15:18:27.787Z,10.63
2022-12-19T15:21:29.097Z,11.45
2022-12-19T15:24:30.413Z,10.90
2022-12-19T15:27:31.727Z,10.73
2022-12-19T15:30:33.020Z,11.43
2022-12-19T15:33:34.324Z,12.13
2022-12-19T15:36:35.628Z,12.48
2022-12-19T15:39:36.941Z,11.73
2022-12-19T15:42:38.237Z,11.35
2022-12-19T15:45:40.023Z,11.85
2022-12-19T15:48:41.328Z,11.70
2022-12-19T15:51:42.625Z,12.40
2022-12-19T15:54:48.652Z,13.05
2022-12-19T15:57:50.952Z,13.88
2022-12-19T16:00:52.286Z,14.38
2022-12-19T16:03:53.868Z,14.73
2022-12-19T16:06:55.346Z,16.08
2022-12-19T16:09:56.727Z,21.25
2022-12-19T16:12:58.155Z,15.38
2022-12-19T16:15:59.541Z,15.43
2022-12-19T16:19:00.933Z,15.53
2022-12-19T16:22:02.240Z,16.17
2022-12-19T16:25:03.562Z,19.83
2022-12-19T16:28:04.974Z,45.45
2022-12-19T16:31:06.330Z,32.22
2022-12-19T16:34:07.684Z,24.33
2022-12-19T16:37:09.012Z,22.13
2022-12-19T16:40:10.323Z,17.92
2022-12-19T16:43:11.619Z,18.63
2022-12-19T16:46:12.953Z,19.02
2022-12-19T16:49:14.240Z,19.57
2022-12-19T16:52:15.540Z,17.63
2022-12-19T16:55:16.898Z,17.23
2022-12-19T16:58:18.209Z,17.35
2022-12-19T17:01:19.582Z,19.35
2022-12-19T17:04:20.993Z,17.30
2022-12-19T17:07:22.309Z,16.75
2022-12-19T17:10:26.358Z,17.52
2022-12-19T17:13:27.905Z,15.52
2022-12-19T17:16:29.299Z,17.05
2022-12-19T17:19:30.613Z,15.97
2022-12-19T17:22:32.119Z,16.27
2022-12-19T17:25:33.403Z,15.25
2022-12-19T17:28:34.751Z,15.70
2022-12-19T17:31:36.170Z,15.52
2022-12-19T17:34:37.539Z,15.40
2022-12-19T17:37:38.857Z,16.42
2022-12-19T17:40:40.222Z,14.52
2022-12-19T17:43:41.520Z,15.75
2022-12-19T17:46:42.836Z,16.80
2022-12-19T17:49:44.160Z,16.07
2022-12-19T17:52:45.451Z,16.10
2022-12-19T17:55:46.766Z,14.02
2022-12-19T17:58:48.077Z,16.55
2022-12-19T18:01:49.816Z,15.80
2022-12-19T18:04:51.405Z,14.73
2022-12-19T18:07:52.755Z,14.70
2022-12-19T18:10:54.061Z,15.20
2022-12-19T18:13:55.395Z,16.00
2022-12-19T18:16:57.007Z,14.80
2022-12-19T18:19:58.393Z,14.70
2022-12-19T18:23:00.349Z,14.27
2022-12-19T18:26:02.792Z,14.38
2022-12-19T18:29:04.383Z,14.63
2022-12-19T18:32:05.743Z,14.48
2022-12-19T18:35:07.097Z,15.13
2022-12-19T18:38:08.417Z,14.48
2022-12-19T18:41:09.764Z,14.85
2022-12-19T18:44:11.082Z,14.55
2022-12-19T18:47:12.646Z,14.27
2022-12-19T18:50:14.297Z,14.23
2022-12-19T18:53:15.703Z,14.02
2022-12-19T18:56:17.039Z,14.05
2022-12-19T18:59:18.656Z,13.80
2022-12-19T19:02:20.137Z,15.70
2022-12-19T19:05:24.339Z,14.53
2022-12-19T19:08:25.986Z,14.80
2022-12-19T19:11:27.723Z,14.75
2022-12-19T19:14:29.120Z,14.85
2022-12-19T19:17:30.433Z,16.00
2022-12-19T19:20:31.809Z,14.50
2022-12-19T19:23:33.137Z,14.93
2022-12-19T19:26:34.443Z,14.82
2022-12-19T19:29:36.122Z,15.50
2022-12-19T19:32:37.502Z,15.07
2022-12-19T19:35:39.135Z,16.57
2022-12-19T19:38:40.525Z,14.65
2022-12-19T19:41:41.842Z,15.05
2022-12-19T19:44:43.289Z,14.73
2022-12-19T19:47:44.598Z,14.23
2022-12-19T19:50:45.977Z,15.23
2022-12-19T19:53:47.282Z,15.30
2022-12-19T19:56:48.600Z,14.10
2022-12-19T19:59:49.915Z,14.27
2022-12-19T20:02:51.460Z,14.68
2022-12-19T20:05:53.204Z,14.13
2022-12-19T20:08:54.581Z,14.73
2022-12-19T20:11:56.167Z,13.13
2022-12-19T20:14:57.538Z,14.73
2022-12-19T20:17:58.857Z,14.43
2022-12-19T20:21:00.203Z,14.93
2022-12-19T20:24:01.526Z,14.02
2022-12-19T20:27:02.849Z,15.18
2022-12-19T20:30:04.311Z,13.93
2022-12-19T20:33:06.017Z,13.90
2022-12-19T20:36:07.457Z,15.10
2022-12-19T20:39:08.799Z,13.85
2022-12-19T20:42:10.074Z,15.15
2022-12-19T20:45:11.469Z,15.15
2022-12-19T20:48:12.792Z,15.45
2022-12-19T20:51:14.240Z,14.87
2022-12-19T20:54:15.773Z,14.85
2022-12-19T20:57:17.229Z,14.13
2022-12-19T21:00:18.560Z,14.82
2022-12-19T21:03:29.384Z,14.45
2022-12-19T21:06:31.467Z,14.23
2022-12-19T21:09:32.769Z,15.00
2022-12-19T21:12:34.141Z,14.98
2022-12-19T21:15:35.499Z,14.48
2022-12-19T21:18:36.787Z,14.63
2022-12-19T21:21:38.123Z,14.53
2022-12-19T21:24:39.435Z,14.18
2022-12-19T21:27:40.777Z,14.20
2022-12-19T21:30:42.087Z,14.48
2022-12-19T21:33:43.412Z,14.10
2022-12-19T21:36:44.702Z,14.67
2022-12-19T21:39:46.039Z,14.63
2022-12-19T21:42:47.354Z,13.98
2022-12-19T21:45:48.662Z,14.48
2022-12-19T21:48:49.970Z,13.75
2022-12-19T21:51:51.270Z,14.70
2022-12-19T21:54:52.595Z,14.23
2022-12-19T21:57:53.901Z,15.35
2022-12-19T22:00:55.256Z,13.93
2022-12-19T22:03:56.676Z,14.38
2022-12-19T22:06:58.076Z,14.30
2022-12-19T22:09:59.394Z,13.90
2022-12-19T22:13:00.709Z,15.00
2022-12-19T22:16:02.089Z,13.65
2022-12-19T22:19:03.417Z,14.63
2022-12-19T22:22:04.821Z,14.43
2022-12-19T22:25:06.339Z,13.85
2022-12-19T22:28:07.662Z,13.15
2022-12-19T22:31:09.013Z,12.95
2022-12-19T22:34:10.361Z,14.75
2022-12-19T22:37:11.681Z,13.40
2022-12-19T22:40:13.105Z,12.93
2022-12-19T22:43:14.409Z,13.15
2022-12-19T22:46:15.783Z,12.52
2022-12-19T22:49:17.098Z,13.10
2022-12-19T22:52:18.412Z,11.90
2022-12-19T22:55:19.723Z,13.77
2022-12-19T22:58:21.019Z,14.30
2022-12-19T23:01:22.360Z,13.73
2022-12-19T23:04:23.815Z,14.27
2022-12-19T23:07:25.170Z,12.83
2022-12-19T23:10:26.490Z,12.63
2022-12-19T23:13:27.806Z,12.27
2022-12-19T23:16:29.178Z,12.52
2022-12-19T23:19:30.568Z,13.48
2022-12-19T23:22:31.975Z,12.63
2022-12-19T23:25:33.482Z,12.65
2022-12-19T23:28:34.782Z,12.45
2022-12-19T23:31:36.240Z,13.88
2022-12-19T23:34:37.582Z,12.57
2022-12-19T23:37:38.891Z,13.20
2022-12-19T23:40:40.184Z,13.23
2022-12-19T23:43:41.775Z,12.77
2022-12-19T23:46:43.078Z,13.05
2022-12-19T23:49:44.382Z,12.90
2022-12-19T23:52:45.687Z,13.13
2022-12-19T23:55:46.981Z,12.88
2022-12-19T23:58:48.287Z,12.40
